AirNav   Air Wisconsin Up To $57,000 Bonus
 
 920 users online  

FL93 Mount Sinai Medical Center Heliport
Miami Beach, Florida, USA

GOING TO MIAMI BEACH?


FAA INFORMATION EFFECTIVE 05 DECEMBER 2019

Location

FAA Identifier: FL93
Lat/Long: 25-48-52.1500N 080-08-28.3600W
25-48.869167N 080-08.472667W
25.8144861,-80.1412111
(estimated)
Elevation: 6 ft. / 2 m (estimated)
Variation: 03W (1985)
Time zone: UTC -5 (UTC -4 during Daylight Saving Time)
Zip code: 33140

Heliport Operations

Heliport use: Private use, MEDICAL.
Activation date: 05/1964
Control tower: no
ARTCC: MIAMI CENTER
FSS: MIAMI FLIGHT SERVICE STATION
Attendance: CONTINUOUS
Wind indicator: yes
Segmented circle: no
Lights: PHONE REQ

Heliport Communications

WX ASOS at MIA (8 nm W): PHONE 305-870-0235
WX ASOS at OPF (9 nm NW): 125.9 (305-681-4063)
WX ASOS at HWO (12 nm NW): PHONE 954-983-5904
WX ASOS at FLL (15 nm N): PHONE 954-359-7857
WX ASOS at TMB (19 nm SW): PHONE 305-235-1332

Nearby radio navigation aids

VOR radial/distance  VOR name  Freq  Var
VKZr015/3.8VIRGINIA KEY VOR/DME117.1004W
DHPr090/11.3DOLPHIN VORTAC113.9004W
FLLr181/15.6FORT LAUDERDALE VOR/DME114.4006W

Heliport Services

Airframe service: NONE
Powerplant service: NONE

Runway Information

Helipad H1

Dimensions: 36 x 36 ft. / 11 x 11 m
Surface: asphalt, in fair condition
Latitude: 25-48.869167N
Longitude: 080-08.472667W
Elevation: 6.0 ft.
Traffic pattern: leftleft
Markings: none, in fair condition

Heliport Ownership and Management from official FAA records

Ownership: Privately-owned
Owner: MOUNT SINAI MEDICAL CENTER
4300 ALTON RD
MIAMI BEACH, FL 33140
Phone 305-674-2300
Manager: TERRY GLANVILLE
4300 ALTON RD
MIAMI BEACH, FL 33140
Phone 305-674-2300

Additional Remarks

HELIPORT IS FOR CIVIL DEFENSE AND MEDICAL EMGCY USE ONLY.
FOR CD CTC MIAMI APCH AT 305-869-5432.

Instrument Procedures

There are no published instrument procedures at FL93.

Some nearby airports with instrument procedures:

KMIA - Miami International Airport (8 nm W)
KOPF - Miami-Opa Locka Executive Airport (9 nm NW)
KHWO - North Perry Airport (12 nm NW)
KFLL - Fort Lauderdale/Hollywood International Airport (15 nm N)
KTMB - Miami Executive Airport (19 nm SW)
 
Loc | Ops | Rwys | IFR | FBO | Links
Com | Nav | Svcs | Stats | Notes

Reliance Aviation
AirBoss

 
Area around FL93 (Mount Sinai Medical Center Heliport)
 
Road maps at: MapQuest Bing Google
 
Aerial photo
No photo
 
Sectional chart

 
Airport distance calculator
Flying to Mount Sinai Medical Center Heliport? Find the distance to fly.

From to FL93

Sunrise and sunset
Times for 07-Dec-2019
 Local
(UTC-5)
 Zulu
(UTC)
Morning civil twilight06:3011:30
Sunrise06:5511:55
Sunset17:2922:29
Evening civil twilight17:5422:54

Current date and time
Zulu (UTC)  08-Dec-2019 03:09:01
Local (UTC-5)  07-Dec-2019 22:09:01
 
METAR
KMIA 
10nm W 
080253Z 01003KT 10SM FEW028 SCT250 22/15 A3014 RMK AO2 SLP207 T02220150 51004
KOPF 
10nm NW 
080253Z 00000KT 10SM CLR 19/16 A3015 RMK AO2 SLP209 T01890161 51004
KHWO 
12nm NW 
080253Z AUTO 35003KT 10SM CLR 20/15 A3015 RMK AO2 SLP211 T02000150 51005 $
KFLL 
15nm N 
080253Z 34005KT 10SM FEW037 SCT130 19/14 A3014 RMK AO2 SLP204 T01940144 51006 $
KTMB 
19nm SW 
080253Z 00000KT 10SM CLR 18/16 A3014 RMK AO2 SLP205 LAST T01830156 51003
TAF
KMIA 
10nm W 
072107Z 0721/0824 09008KT P6SM FEW045 FEW130 SCT250 FM080000 VRB03KT P6SM FEW030 FM081500 07007KT P6SM FEW035
KOPF 
10nm NW 
072106Z 0721/0818 09008KT P6SM SKC FM080000 VRB03KT P6SM FEW030 FM081500 06006KT P6SM FEW030
KFLL 
15nm N 
072106Z 0721/0824 08008KT P6SM FEW045 SCT220 FM080000 VRB03KT P6SM FEW030 FM081500 07007KT P6SM FEW035
KTMB 
19nm SW 
072107Z 0721/0818 10007KT P6SM SKC FM080000 VRB03KT P6SM FEW030 FM081500 07007KT P6SM FEW035
NOTAMs
Click for the latest NOTAMs
NOTAMs are issued by the DoD/FAA and will open in a separate window not controlled by AirNav.

 

 
 

Would you like to see your business listed on this page?

 If your business provides an interesting product or service to pilots, flight crews, aircraft, or users of the Mount Sinai Medical Center Heliport, you should consider listing it here.  To start the listing process, click on the button below
 
Add a business
 

Other Pages about Mount Sinai Medical Center Heliport

Update a link
 
Copyright © AirNav, LLC. All rights reserved. Privacy Policy  Contact